sensor_id;sensor_type;location;lat;lon;timestamp;P1;durP1;ratioP1;P2;durP2;ratioP2
35877;SDS011;21982;49.804;24.072;2023-05-07T00:01:42;5.97;;;2.20;;
35877;SDS011;21982;49.804;24.072;2023-05-07T00:04:08;9.95;;;2.78;;
35877;SDS011;21982;49.804;24.072;2023-05-07T00:06:33;7.88;;;3.17;;
35877;SDS011;21982;49.804;24.072;2023-05-07T00:08:59;6.63;;;2.70;;
35877;SDS011;21982;49.804;24.072;2023-05-07T00:11:25;6.00;;;2.67;;
35877;SDS011;21982;49.804;24.072;2023-05-07T00:13:51;6.82;;;2.58;;
35877;SDS011;21982;49.804;24.072;2023-05-07T00:16:16;5.68;;;2.70;;
35877;SDS011;21982;49.804;24.072;2023-05-07T00:18:42;6.30;;;3.30;;
35877;SDS011;21982;49.804;24.072;2023-05-07T00:21:08;6.43;;;3.10;;
35877;SDS011;21982;49.804;24.072;2023-05-07T00:23:33;5.22;;;2.72;;
35877;SDS011;21982;49.804;24.072;2023-05-07T00:25:58;5.85;;;2.53;;
35877;SDS011;21982;49.804;24.072;2023-05-07T00:28:24;7.38;;;3.08;;
35877;SDS011;21982;49.804;24.072;2023-05-07T00:30:49;11.82;;;2.58;;
35877;SDS011;21982;49.804;24.072;2023-05-07T00:33:15;4.93;;;2.80;;
35877;SDS011;21982;49.804;24.072;2023-05-07T00:35:40;6.35;;;2.35;;
35877;SDS011;21982;49.804;24.072;2023-05-07T00:38:05;7.32;;;2.50;;
35877;SDS011;21982;49.804;24.072;2023-05-07T00:40:31;9.57;;;3.10;;
35877;SDS011;21982;49.804;24.072;2023-05-07T00:42:56;4.88;;;2.78;;
35877;SDS011;21982;49.804;24.072;2023-05-07T00:45:23;8.38;;;2.88;;
35877;SDS011;21982;49.804;24.072;2023-05-07T00:47:53;6.43;;;2.20;;
35877;SDS011;21982;49.804;24.072;2023-05-07T00:50:22;5.10;;;2.47;;
35877;SDS011;21982;49.804;24.072;2023-05-07T00:52:48;6.63;;;2.97;;
35877;SDS011;21982;49.804;24.072;2023-05-07T00:55:14;6.97;;;3.20;;
35877;SDS011;21982;49.804;24.072;2023-05-07T00:57:40;8.35;;;2.90;;
35877;SDS011;21982;49.804;24.072;2023-05-07T01:00:07;8.27;;;2.40;;
35877;SDS011;21982;49.804;24.072;2023-05-07T01:02:40;5.13;;;2.50;;
35877;SDS011;21982;49.804;24.072;2023-05-07T01:05:07;7.30;;;3.05;;
35877;SDS011;21982;49.804;24.072;2023-05-07T01:07:36;6.57;;;2.65;;
35877;SDS011;21982;49.804;24.072;2023-05-07T01:10:05;8.40;;;3.25;;
35877;SDS011;21982;49.804;24.072;2023-05-07T01:12:32;7.05;;;3.72;;
35877;SDS011;21982;49.804;24.072;2023-05-07T01:14:58;10.52;;;2.65;;
35877;SDS011;21982;49.804;24.072;2023-05-07T01:17:23;12.82;;;3.28;;
35877;SDS011;21982;49.804;24.072;2023-05-07T01:19:49;8.80;;;2.92;;
35877;SDS011;21982;49.804;24.072;2023-05-07T01:22:17;4.20;;;2.53;;
35877;SDS011;21982;49.804;24.072;2023-05-07T01:24:59;9.20;;;3.35;;
35877;SDS011;21982;49.804;24.072;2023-05-07T01:27:26;7.15;;;2.80;;
35877;SDS011;21982;49.804;24.072;2023-05-07T01:29:52;9.77;;;3.35;;
35877;SDS011;21982;49.804;24.072;2023-05-07T01:32:19;8.18;;;2.65;;
35877;SDS011;21982;49.804;24.072;2023-05-07T01:34:54;7.88;;;2.70;;
35877;SDS011;21982;49.804;24.072;2023-05-07T01:37:21;5.40;;;2.58;;
35877;SDS011;21982;49.804;24.072;2023-05-07T01:39:47;7.03;;;3.25;;
35877;SDS011;21982;49.804;24.072;2023-05-07T01:42:13;5.97;;;2.88;;
35877;SDS011;21982;49.804;24.072;2023-05-07T01:44:38;7.10;;;3.08;;
35877;SDS011;21982;49.804;24.072;2023-05-07T01:47:04;5.47;;;3.00;;
35877;SDS011;21982;49.804;24.072;2023-05-07T01:49:31;7.80;;;3.35;;
35877;SDS011;21982;49.804;24.072;2023-05-07T01:51:56;7.20;;;3.50;;
35877;SDS011;21982;49.804;24.072;2023-05-07T01:54:26;9.70;;;3.38;;
35877;SDS011;21982;49.804;24.072;2023-05-07T01:56:56;7.85;;;3.15;;
35877;SDS011;21982;49.804;24.072;2023-05-07T01:59:23;10.13;;;2.83;;
35877;SDS011;21982;49.804;24.072;2023-05-07T02:01:49;8.23;;;3.70;;
35877;SDS011;21982;49.804;24.072;2023-05-07T02:04:14;8.35;;;4.05;;
35877;SDS011;21982;49.804;24.072;2023-05-07T02:06:40;10.25;;;2.88;;
35877;SDS011;21982;49.804;24.072;2023-05-07T02:09:05;8.90;;;2.92;;
35877;SDS011;21982;49.804;24.072;2023-05-07T02:11:30;6.88;;;2.92;;
35877;SDS011;21982;49.804;24.072;2023-05-07T02:13:56;8.07;;;3.33;;
35877;SDS011;21982;49.804;24.072;2023-05-07T02:16:21;9.40;;;3.15;;
35877;SDS011;21982;49.804;24.072;2023-05-07T02:18:48;7.13;;;2.70;;
35877;SDS011;21982;49.804;24.072;2023-05-07T02:21:13;6.90;;;3.17;;
35877;SDS011;21982;49.804;24.072;2023-05-07T02:23:39;9.95;;;3.25;;
35877;SDS011;21982;49.804;24.072;2023-05-07T02:26:04;6.30;;;2.45;;
35877;SDS011;21982;49.804;24.072;2023-05-07T02:28:30;10.02;;;3.45;;
35877;SDS011;21982;49.804;24.072;2023-05-07T02:30:55;5.32;;;2.83;;
35877;SDS011;21982;49.804;24.072;2023-05-07T02:33:20;10.85;;;4.35;;
35877;SDS011;21982;49.804;24.072;2023-05-07T02:35:46;7.25;;;3.55;;
35877;SDS011;21982;49.804;24.072;2023-05-07T02:38:12;5.55;;;3.05;;
35877;SDS011;21982;49.804;24.072;2023-05-07T02:40:38;6.50;;;3.03;;
35877;SDS011;21982;49.804;24.072;2023-05-07T02:43:05;9.07;;;2.80;;
35877;SDS011;21982;49.804;24.072;2023-05-07T02:45:32;10.23;;;3.13;;
35877;SDS011;21982;49.804;24.072;2023-05-07T02:47:58;8.40;;;3.07;;
35877;SDS011;21982;49.804;24.072;2023-05-07T02:50:24;7.95;;;4.18;;
35877;SDS011;21982;49.804;24.072;2023-05-07T02:52:51;6.85;;;2.90;;
35877;SDS011;21982;49.804;24.072;2023-05-07T02:55:17;7.53;;;3.08;;
35877;SDS011;21982;49.804;24.072;2023-05-07T02:57:44;8.05;;;3.20;;
35877;SDS011;21982;49.804;24.072;2023-05-07T03:00:13;9.52;;;4.00;;
35877;SDS011;21982;49.804;24.072;2023-05-07T03:02:40;13.98;;;3.72;;
35877;SDS011;21982;49.804;24.072;2023-05-07T03:05:06;5.50;;;3.08;;
35877;SDS011;21982;49.804;24.072;2023-05-07T03:07:31;10.63;;;3.47;;
35877;SDS011;21982;49.804;24.072;2023-05-07T03:09:56;7.72;;;3.63;;
35877;SDS011;21982;49.804;24.072;2023-05-07T03:12:22;6.75;;;3.25;;
35877;SDS011;21982;49.804;24.072;2023-05-07T03:14:48;12.90;;;4.18;;
35877;SDS011;21982;49.804;24.072;2023-05-07T03:17:13;9.35;;;3.47;;
35877;SDS011;21982;49.804;24.072;2023-05-07T03:19:41;9.60;;;4.82;;
35877;SDS011;21982;49.804;24.072;2023-05-07T03:22:08;8.55;;;4.00;;
35877;SDS011;21982;49.804;24.072;2023-05-07T03:24:34;8.95;;;4.90;;
35877;SDS011;21982;49.804;24.072;2023-05-07T03:27:00;7.03;;;3.67;;
35877;SDS011;21982;49.804;24.072;2023-05-07T03:29:26;8.63;;;4.22;;
35877;SDS011;21982;49.804;24.072;2023-05-07T03:31:51;7.25;;;3.95;;
35877;SDS011;21982;49.804;24.072;2023-05-07T03:34:17;9.38;;;4.68;;
35877;SDS011;21982;49.804;24.072;2023-05-07T03:36:46;10.38;;;4.25;;
35877;SDS011;21982;49.804;24.072;2023-05-07T03:39:12;10.43;;;5.20;;
35877;SDS011;21982;49.804;24.072;2023-05-07T03:41:38;10.38;;;4.60;;
35877;SDS011;21982;49.804;24.072;2023-05-07T03:44:03;11.60;;;5.35;;
35877;SDS011;21982;49.804;24.072;2023-05-07T03:46:28;12.15;;;5.53;;
35877;SDS011;21982;49.804;24.072;2023-05-07T03:48:54;14.25;;;6.47;;
35877;SDS011;21982;49.804;24.072;2023-05-07T03:51:20;14.05;;;7.28;;
35877;SDS011;21982;49.804;24.072;2023-05-07T03:53:46;14.13;;;8.35;;
35877;SDS011;21982;49.804;24.072;2023-05-07T03:56:11;13.77;;;7.40;;
35877;SDS011;21982;49.804;24.072;2023-05-07T03:58:38;14.02;;;8.27;;
35877;SDS011;21982;49.804;24.072;2023-05-07T04:01:03;13.48;;;7.68;;
35877;SDS011;21982;49.804;24.072;2023-05-07T04:03:29;15.95;;;9.02;;
35877;SDS011;21982;49.804;24.072;2023-05-07T04:05:54;19.17;;;10.50;;
35877;SDS011;21982;49.804;24.072;2023-05-07T04:08:20;15.82;;;11.02;;
35877;SDS011;21982;49.804;24.072;2023-05-07T04:10:46;28.60;;;12.27;;
35877;SDS011;21982;49.804;24.072;2023-05-07T04:13:11;21.90;;;12.10;;
35877;SDS011;21982;49.804;24.072;2023-05-07T04:15:36;21.55;;;13.25;;
35877;SDS011;21982;49.804;24.072;2023-05-07T04:18:02;19.55;;;11.93;;
35877;SDS011;21982;49.804;24.072;2023-05-07T04:20:27;22.60;;;13.98;;
35877;SDS011;21982;49.804;24.072;2023-05-07T04:22:52;21.10;;;14.07;;
35877;SDS011;21982;49.804;24.072;2023-05-07T04:25:19;25.27;;;14.25;;
35877;SDS011;21982;49.804;24.072;2023-05-07T04:27:51;25.33;;;14.50;;
35877;SDS011;21982;49.804;24.072;2023-05-07T04:30:17;24.63;;;14.15;;
35877;SDS011;21982;49.804;24.072;2023-05-07T04:32:42;19.70;;;13.40;;
35877;SDS011;21982;49.804;24.072;2023-05-07T04:35:09;24.10;;;15.77;;
35877;SDS011;21982;49.804;24.072;2023-05-07T04:37:35;22.33;;;13.98;;
35877;SDS011;21982;49.804;24.072;2023-05-07T04:40:01;22.52;;;14.57;;
35877;SDS011;21982;49.804;24.072;2023-05-07T04:42:28;20.60;;;12.05;;
35877;SDS011;21982;49.804;24.072;2023-05-07T04:44:54;17.13;;;12.48;;
35877;SDS011;21982;49.804;24.072;2023-05-07T04:47:19;16.40;;;10.15;;
35877;SDS011;21982;49.804;24.072;2023-05-07T04:49:46;18.67;;;11.52;;
35877;SDS011;21982;49.804;24.072;2023-05-07T04:52:11;18.17;;;11.55;;
35877;SDS011;21982;49.804;24.072;2023-05-07T04:54:37;15.00;;;10.50;;
35877;SDS011;21982;49.804;24.072;2023-05-07T04:57:03;14.68;;;9.05;;
35877;SDS011;21982;49.804;24.072;2023-05-07T04:59:29;15.15;;;9.20;;
35877;SDS011;21982;49.804;24.072;2023-05-07T05:01:56;14.43;;;8.30;;
35877;SDS011;21982;49.804;24.072;2023-05-07T05:04:22;11.95;;;8.55;;
35877;SDS011;21982;49.804;24.072;2023-05-07T05:06:53;13.43;;;7.63;;
35877;SDS011;21982;49.804;24.072;2023-05-07T05:09:20;12.20;;;7.32;;
35877;SDS011;21982;49.804;24.072;2023-05-07T05:11:45;12.57;;;6.97;;
35877;SDS011;21982;49.804;24.072;2023-05-07T05:14:11;14.40;;;7.43;;
35877;SDS011;21982;49.804;24.072;2023-05-07T05:16:36;10.25;;;6.18;;
35877;SDS011;21982;49.804;24.072;2023-05-07T05:19:01;10.85;;;6.68;;
35877;SDS011;21982;49.804;24.072;2023-05-07T05:21:27;15.05;;;8.65;;
35877;SDS011;21982;49.804;24.072;2023-05-07T05:23:52;11.85;;;7.68;;
35877;SDS011;21982;49.804;24.072;2023-05-07T05:26:18;12.20;;;7.45;;
35877;SDS011;21982;49.804;24.072;2023-05-07T05:28:43;11.52;;;7.63;;
35877;SDS011;21982;49.804;24.072;2023-05-07T05:31:09;11.30;;;6.07;;
35877;SDS011;21982;49.804;24.072;2023-05-07T05:33:35;9.20;;;5.55;;
35877;SDS011;21982;49.804;24.072;2023-05-07T05:36:01;11.90;;;7.15;;
35877;SDS011;21982;49.804;24.072;2023-05-07T05:38:26;9.80;;;6.05;;
35877;SDS011;21982;49.804;24.072;2023-05-07T05:40:52;10.18;;;6.15;;
35877;SDS011;21982;49.804;24.072;2023-05-07T05:43:17;10.82;;;6.40;;
35877;SDS011;21982;49.804;24.072;2023-05-07T05:45:42;10.15;;;5.80;;
35877;SDS011;21982;49.804;24.072;2023-05-07T05:48:08;9.00;;;5.20;;
35877;SDS011;21982;49.804;24.072;2023-05-07T05:50:33;10.70;;;5.15;;
35877;SDS011;21982;49.804;24.072;2023-05-07T05:53:01;10.98;;;6.13;;
35877;SDS011;21982;49.804;24.072;2023-05-07T05:55:26;8.25;;;5.82;;
35877;SDS011;21982;49.804;24.072;2023-05-07T05:57:52;12.15;;;7.43;;
35877;SDS011;21982;49.804;24.072;2023-05-07T06:00:17;13.23;;;7.28;;
35877;SDS011;21982;49.804;24.072;2023-05-07T06:02:47;11.70;;;6.85;;
35877;SDS011;21982;49.804;24.072;2023-05-07T06:05:13;13.38;;;5.97;;
35877;SDS011;21982;49.804;24.072;2023-05-07T06:07:38;9.48;;;6.05;;
35877;SDS011;21982;49.804;24.072;2023-05-07T06:10:03;11.93;;;6.07;;
35877;SDS011;21982;49.804;24.072;2023-05-07T06:12:29;10.98;;;6.80;;
35877;SDS011;21982;49.804;24.072;2023-05-07T06:14:55;10.57;;;6.45;;
35877;SDS011;21982;49.804;24.072;2023-05-07T06:17:20;10.15;;;6.00;;
35877;SDS011;21982;49.804;24.072;2023-05-07T06:19:46;8.93;;;5.57;;
35877;SDS011;21982;49.804;24.072;2023-05-07T06:22:11;11.63;;;5.90;;
35877;SDS011;21982;49.804;24.072;2023-05-07T06:24:37;12.63;;;6.07;;
35877;SDS011;21982;49.804;24.072;2023-05-07T06:27:02;11.07;;;6.88;;
35877;SDS011;21982;49.804;24.072;2023-05-07T06:29:28;10.85;;;7.00;;
35877;SDS011;21982;49.804;24.072;2023-05-07T06:31:56;11.07;;;6.05;;
35877;SDS011;21982;49.804;24.072;2023-05-07T06:34:21;12.65;;;7.15;;
35877;SDS011;21982;49.804;24.072;2023-05-07T06:36:47;16.98;;;8.07;;
35877;SDS011;21982;49.804;24.072;2023-05-07T06:39:12;12.98;;;6.18;;
35877;SDS011;21982;49.804;24.072;2023-05-07T06:41:41;12.63;;;7.53;;
35877;SDS011;21982;49.804;24.072;2023-05-07T06:44:06;11.68;;;6.95;;
35877;SDS011;21982;49.804;24.072;2023-05-07T06:46:32;11.55;;;6.90;;
35877;SDS011;21982;49.804;24.072;2023-05-07T06:48:57;11.98;;;6.75;;
35877;SDS011;21982;49.804;24.072;2023-05-07T06:51:23;10.98;;;6.40;;
35877;SDS011;21982;49.804;24.072;2023-05-07T06:53:49;12.13;;;6.28;;
35877;SDS011;21982;49.804;24.072;2023-05-07T06:56:14;11.07;;;6.55;;
35877;SDS011;21982;49.804;24.072;2023-05-07T06:58:40;12.15;;;6.60;;
35877;SDS011;21982;49.804;24.072;2023-05-07T07:01:05;17.05;;;7.88;;
35877;SDS011;21982;49.804;24.072;2023-05-07T07:03:31;10.75;;;6.53;;
35877;SDS011;21982;49.804;24.072;2023-05-07T07:05:56;13.98;;;7.45;;
35877;SDS011;21982;49.804;24.072;2023-05-07T07:08:21;10.90;;;6.80;;
35877;SDS011;21982;49.804;24.072;2023-05-07T07:10:47;13.10;;;7.30;;
35877;SDS011;21982;49.804;24.072;2023-05-07T07:13:13;11.98;;;6.63;;
35877;SDS011;21982;49.804;24.072;2023-05-07T07:15:38;13.25;;;5.13;;
35877;SDS011;21982;49.804;24.072;2023-05-07T07:18:05;7.60;;;4.18;;
35877;SDS011;21982;49.804;24.072;2023-05-07T07:20:31;8.07;;;3.92;;
35877;SDS011;21982;49.804;24.072;2023-05-07T07:22:56;10.18;;;5.20;;
35877;SDS011;21982;49.804;24.072;2023-05-07T07:25:22;12.73;;;6.53;;
35877;SDS011;21982;49.804;24.072;2023-05-07T07:27:47;12.55;;;6.10;;
35877;SDS011;21982;49.804;24.072;2023-05-07T07:30:13;11.60;;;6.57;;
35877;SDS011;21982;49.804;24.072;2023-05-07T07:32:38;13.88;;;6.65;;
35877;SDS011;21982;49.804;24.072;2023-05-07T07:35:04;11.77;;;7.13;;
35877;SDS011;21982;49.804;24.072;2023-05-07T07:37:31;11.43;;;6.50;;
35877;SDS011;21982;49.804;24.072;2023-05-07T07:39:56;11.32;;;6.90;;
35877;SDS011;21982;49.804;24.072;2023-05-07T07:42:22;10.32;;;5.60;;
35877;SDS011;21982;49.804;24.072;2023-05-07T07:44:47;10.55;;;5.50;;
35877;SDS011;21982;49.804;24.072;2023-05-07T07:47:14;10.85;;;6.28;;
35877;SDS011;21982;49.804;24.072;2023-05-07T07:49:40;11.32;;;5.10;;
35877;SDS011;21982;49.804;24.072;2023-05-07T07:52:05;10.50;;;6.10;;
35877;SDS011;21982;49.804;24.072;2023-05-07T07:54:31;10.65;;;5.43;;
35877;SDS011;21982;49.804;24.072;2023-05-07T07:56:57;8.45;;;3.95;;
35877;SDS011;21982;49.804;24.072;2023-05-07T07:59:22;8.38;;;4.18;;
35877;SDS011;21982;49.804;24.072;2023-05-07T08:01:49;8.27;;;3.08;;
35877;SDS011;21982;49.804;24.072;2023-05-07T08:04:15;9.52;;;4.10;;
35877;SDS011;21982;49.804;24.072;2023-05-07T08:06:40;7.50;;;3.28;;
35877;SDS011;21982;49.804;24.072;2023-05-07T08:09:06;8.07;;;3.42;;
35877;SDS011;21982;49.804;24.072;2023-05-07T08:11:31;7.63;;;3.88;;
35877;SDS011;21982;49.804;24.072;2023-05-07T08:14:05;11.70;;;3.63;;
35877;SDS011;21982;49.804;24.072;2023-05-07T08:16:30;10.15;;;4.47;;
35877;SDS011;21982;49.804;24.072;2023-05-07T08:19:00;7.88;;;2.92;;
35877;SDS011;21982;49.804;24.072;2023-05-07T08:21:25;7.50;;;3.70;;
35877;SDS011;21982;49.804;24.072;2023-05-07T08:23:51;12.82;;;3.85;;
35877;SDS011;21982;49.804;24.072;2023-05-07T08:26:18;8.55;;;3.83;;
35877;SDS011;21982;49.804;24.072;2023-05-07T08:28:43;8.23;;;4.70;;
35877;SDS011;21982;49.804;24.072;2023-05-07T08:31:10;6.90;;;3.60;;
35877;SDS011;21982;49.804;24.072;2023-05-07T08:33:38;14.63;;;5.60;;
35877;SDS011;21982;49.804;24.072;2023-05-07T08:36:03;6.57;;;3.80;;
35877;SDS011;21982;49.804;24.072;2023-05-07T08:38:30;8.18;;;4.47;;
35877;SDS011;21982;49.804;24.072;2023-05-07T08:40:56;9.45;;;3.90;;
35877;SDS011;21982;49.804;24.072;2023-05-07T08:43:22;10.85;;;4.32;;
35877;SDS011;21982;49.804;24.072;2023-05-07T08:45:53;10.27;;;4.65;;
35877;SDS011;21982;49.804;24.072;2023-05-07T08:48:25;8.45;;;4.40;;
35877;SDS011;21982;49.804;24.072;2023-05-07T08:50:51;11.55;;;4.15;;
35877;SDS011;21982;49.804;24.072;2023-05-07T08:53:17;9.65;;;4.32;;
35877;SDS011;21982;49.804;24.072;2023-05-07T08:55:43;9.75;;;4.47;;
35877;SDS011;21982;49.804;24.072;2023-05-07T08:58:08;8.88;;;3.60;;
35877;SDS011;21982;49.804;24.072;2023-05-07T09:00:36;11.98;;;7.25;;
35877;SDS011;21982;49.804;24.072;2023-05-07T09:03:02;13.68;;;4.85;;
35877;SDS011;21982;49.804;24.072;2023-05-07T09:05:27;6.78;;;3.15;;
35877;SDS011;21982;49.804;24.072;2023-05-07T09:07:53;7.18;;;3.90;;
35877;SDS011;21982;49.804;24.072;2023-05-07T09:10:20;9.65;;;3.90;;
35877;SDS011;21982;49.804;24.072;2023-05-07T09:12:46;8.57;;;3.75;;
35877;SDS011;21982;49.804;24.072;2023-05-07T09:15:12;13.80;;;4.03;;
35877;SDS011;21982;49.804;24.072;2023-05-07T09:17:40;9.30;;;4.68;;
35877;SDS011;21982;49.804;24.072;2023-05-07T09:20:07;13.73;;;4.53;;
35877;SDS011;21982;49.804;24.072;2023-05-07T09:22:33;8.88;;;3.65;;
35877;SDS011;21982;49.804;24.072;2023-05-07T09:25:00;10.70;;;4.30;;
35877;SDS011;21982;49.804;24.072;2023-05-07T09:27:27;7.13;;;3.20;;
35877;SDS011;21982;49.804;24.072;2023-05-07T09:29:53;9.85;;;3.42;;
35877;SDS011;21982;49.804;24.072;2023-05-07T09:32:18;8.40;;;4.03;;
35877;SDS011;21982;49.804;24.072;2023-05-07T09:34:43;7.10;;;3.55;;
35877;SDS011;21982;49.804;24.072;2023-05-07T09:37:10;8.48;;;4.75;;
35877;SDS011;21982;49.804;24.072;2023-05-07T09:39:41;7.85;;;4.30;;
35877;SDS011;21982;49.804;24.072;2023-05-07T09:42:09;6.93;;;3.95;;
35877;SDS011;21982;49.804;24.072;2023-05-07T09:44:36;8.38;;;4.47;;
35877;SDS011;21982;49.804;24.072;2023-05-07T09:47:04;10.00;;;4.63;;
35877;SDS011;21982;49.804;24.072;2023-05-07T09:49:33;7.65;;;3.97;;
35877;SDS011;21982;49.804;24.072;2023-05-07T09:52:00;5.85;;;3.40;;
35877;SDS011;21982;49.804;24.072;2023-05-07T09:54:37;7.00;;;4.05;;
35877;SDS011;21982;49.804;24.072;2023-05-07T09:57:03;7.22;;;4.03;;
35877;SDS011;21982;49.804;24.072;2023-05-07T09:59:31;8.82;;;3.70;;
35877;SDS011;21982;49.804;24.072;2023-05-07T10:02:00;6.25;;;3.63;;
35877;SDS011;21982;49.804;24.072;2023-05-07T10:04:28;5.00;;;2.92;;
35877;SDS011;21982;49.804;24.072;2023-05-07T10:06:55;5.65;;;2.95;;
35877;SDS011;21982;49.804;24.072;2023-05-07T10:09:20;5.50;;;3.88;;
35877;SDS011;21982;49.804;24.072;2023-05-07T10:14:22;7.00;;;3.65;;
35877;SDS011;21982;49.804;24.072;2023-05-07T10:16:49;7.93;;;4.45;;
35877;SDS011;21982;49.804;24.072;2023-05-07T10:19:15;7.13;;;4.00;;
35877;SDS011;21982;49.804;24.072;2023-05-07T10:21:44;8.20;;;3.80;;
35877;SDS011;21982;49.804;24.072;2023-05-07T10:24:19;7.18;;;4.07;;
35877;SDS011;21982;49.804;24.072;2023-05-07T10:26:50;8.50;;;3.83;;
35877;SDS011;21982;49.804;24.072;2023-05-07T10:34:42;9.13;;;4.07;;
35877;SDS011;21982;49.804;24.072;2023-05-07T10:37:10;5.93;;;3.58;;
35877;SDS011;21982;49.804;24.072;2023-05-07T10:39:38;7.75;;;4.43;;
35877;SDS011;21982;49.804;24.072;2023-05-07T10:42:11;7.22;;;4.40;;
35877;SDS011;21982;49.804;24.072;2023-05-07T10:44:37;8.05;;;4.07;;
35877;SDS011;21982;49.804;24.072;2023-05-07T10:47:04;7.10;;;3.40;;
35877;SDS011;21982;49.804;24.072;2023-05-07T10:49:30;7.82;;;4.60;;
35877;SDS011;21982;49.804;24.072;2023-05-07T10:52:11;7.68;;;4.32;;
35877;SDS011;21982;49.804;24.072;2023-05-07T10:59:57;9.05;;;3.80;;
35877;SDS011;21982;49.804;24.072;2023-05-07T11:02:22;8.85;;;4.53;;
35877;SDS011;21982;49.804;24.072;2023-05-07T11:07:50;9.85;;;4.78;;
35877;SDS011;21982;49.804;24.072;2023-05-07T11:10:23;11.05;;;5.22;;
35877;SDS011;21982;49.804;24.072;2023-05-07T11:13:08;9.85;;;5.00;;
35877;SDS011;21982;49.804;24.072;2023-05-07T11:15:34;10.70;;;4.70;;
35877;SDS011;21982;49.804;24.072;2023-05-07T11:18:02;8.25;;;4.80;;
35877;SDS011;21982;49.804;24.072;2023-05-07T11:28:40;6.13;;;3.53;;
35877;SDS011;21982;49.804;24.072;2023-05-07T11:31:08;7.68;;;4.13;;
35877;SDS011;21982;49.804;24.072;2023-05-07T11:33:34;6.88;;;4.30;;
35877;SDS011;21982;49.804;24.072;2023-05-07T11:36:04;7.13;;;4.35;;
35877;SDS011;21982;49.804;24.072;2023-05-07T11:38:30;5.97;;;3.70;;
35877;SDS011;21982;49.804;24.072;2023-05-07T11:41:00;6.40;;;3.40;;
35877;SDS011;21982;49.804;24.072;2023-05-07T11:43:27;7.60;;;4.20;;
35877;SDS011;21982;49.804;24.072;2023-05-07T11:45:53;7.70;;;4.15;;
35877;SDS011;21982;49.804;24.072;2023-05-07T11:48:18;9.63;;;4.82;;
35877;SDS011;21982;49.804;24.072;2023-05-07T11:50:53;9.07;;;4.10;;
35877;SDS011;21982;49.804;24.072;2023-05-07T11:53:36;7.25;;;4.22;;
35877;SDS011;21982;49.804;24.072;2023-05-07T11:56:21;6.95;;;4.30;;
35877;SDS011;21982;49.804;24.072;2023-05-07T11:58:50;10.38;;;4.68;;
35877;SDS011;21982;49.804;24.072;2023-05-07T12:01:17;7.78;;;4.55;;
35877;SDS011;21982;49.804;24.072;2023-05-07T12:03:44;9.55;;;4.18;;
35877;SDS011;21982;49.804;24.072;2023-05-07T12:06:11;10.13;;;5.00;;
35877;SDS011;21982;49.804;24.072;2023-05-07T12:08:40;9.48;;;5.30;;
35877;SDS011;21982;49.804;24.072;2023-05-07T12:11:08;12.00;;;5.82;;
35877;SDS011;21982;49.804;24.072;2023-05-07T12:13:37;12.02;;;5.88;;
35877;SDS011;21982;49.804;24.072;2023-05-07T12:16:03;10.48;;;5.47;;
35877;SDS011;21982;49.804;24.072;2023-05-07T12:18:30;13.50;;;6.60;;
35877;SDS011;21982;49.804;24.072;2023-05-07T12:20:56;12.10;;;6.28;;
35877;SDS011;21982;49.804;24.072;2023-05-07T12:23:21;9.27;;;5.30;;
35877;SDS011;21982;49.804;24.072;2023-05-07T12:25:47;12.05;;;7.53;;
35877;SDS011;21982;49.804;24.072;2023-05-07T12:28:15;11.52;;;5.80;;
35877;SDS011;21982;49.804;24.072;2023-05-07T12:30:42;10.10;;;6.22;;
35877;SDS011;21982;49.804;24.072;2023-05-07T12:33:10;10.15;;;6.05;;
35877;SDS011;21982;49.804;24.072;2023-05-07T12:35:37;12.98;;;7.10;;
35877;SDS011;21982;49.804;24.072;2023-05-07T12:38:08;11.90;;;7.03;;
35877;SDS011;21982;49.804;24.072;2023-05-07T12:40:39;12.63;;;8.77;;
35877;SDS011;21982;49.804;24.072;2023-05-07T12:43:05;12.52;;;7.05;;
35877;SDS011;21982;49.804;24.072;2023-05-07T12:45:30;12.75;;;6.18;;
35877;SDS011;21982;49.804;24.072;2023-05-07T12:47:55;13.75;;;6.78;;
35877;SDS011;21982;49.804;24.072;2023-05-07T12:50:25;15.20;;;8.65;;
35877;SDS011;21982;49.804;24.072;2023-05-07T12:52:55;12.10;;;8.10;;
35877;SDS011;21982;49.804;24.072;2023-05-07T12:55:21;11.63;;;6.82;;
35877;SDS011;21982;49.804;24.072;2023-05-07T12:58:04;12.27;;;5.43;;
35877;SDS011;21982;49.804;24.072;2023-05-07T13:03:06;9.57;;;5.43;;
35877;SDS011;21982;49.804;24.072;2023-05-07T13:05:32;12.52;;;5.38;;
35877;SDS011;21982;49.804;24.072;2023-05-07T13:07:57;11.70;;;4.70;;
35877;SDS011;21982;49.804;24.072;2023-05-07T13:10:23;12.10;;;6.13;;
35877;SDS011;21982;49.804;24.072;2023-05-07T13:12:50;12.00;;;5.72;;
35877;SDS011;21982;49.804;24.072;2023-05-07T13:15:16;9.50;;;4.88;;
35877;SDS011;21982;49.804;24.072;2023-05-07T13:17:43;9.65;;;5.28;;
35877;SDS011;21982;49.804;24.072;2023-05-07T13:20:10;10.38;;;5.57;;
35877;SDS011;21982;49.804;24.072;2023-05-07T13:22:37;8.70;;;5.40;;
35877;SDS011;21982;49.804;24.072;2023-05-07T13:25:03;12.10;;;4.63;;
35877;SDS011;21982;49.804;24.072;2023-05-07T13:27:29;9.25;;;5.63;;
35877;SDS011;21982;49.804;24.072;2023-05-07T13:29:55;11.52;;;6.88;;
35877;SDS011;21982;49.804;24.072;2023-05-07T13:32:24;12.18;;;6.32;;
35877;SDS011;21982;49.804;24.072;2023-05-07T13:34:49;14.68;;;7.20;;
35877;SDS011;21982;49.804;24.072;2023-05-07T13:37:15;15.20;;;7.28;;
35877;SDS011;21982;49.804;24.072;2023-05-07T13:39:40;12.80;;;6.53;;
35877;SDS011;21982;49.804;24.072;2023-05-07T13:42:06;12.10;;;6.95;;
35877;SDS011;21982;49.804;24.072;2023-05-07T13:44:31;16.70;;;9.15;;
35877;SDS011;21982;49.804;24.072;2023-05-07T13:46:57;18.77;;;11.27;;
35877;SDS011;21982;49.804;24.072;2023-05-07T13:49:22;17.75;;;9.50;;
35877;SDS011;21982;49.804;24.072;2023-05-07T13:51:49;15.15;;;6.45;;
35877;SDS011;21982;49.804;24.072;2023-05-07T13:54:14;11.70;;;6.57;;
35877;SDS011;21982;49.804;24.072;2023-05-07T13:56:40;16.17;;;8.30;;
35877;SDS011;21982;49.804;24.072;2023-05-07T13:59:06;11.20;;;6.70;;
35877;SDS011;21982;49.804;24.072;2023-05-07T14:01:31;15.02;;;6.82;;
35877;SDS011;21982;49.804;24.072;2023-05-07T14:03:56;13.25;;;6.28;;
35877;SDS011;21982;49.804;24.072;2023-05-07T14:06:23;13.52;;;7.95;;
35877;SDS011;21982;49.804;24.072;2023-05-07T14:08:49;14.25;;;7.72;;
35877;SDS011;21982;49.804;24.072;2023-05-07T14:11:15;14.85;;;7.38;;
35877;SDS011;21982;49.804;24.072;2023-05-07T14:13:40;10.80;;;6.38;;
35877;SDS011;21982;49.804;24.072;2023-05-07T14:18:41;10.85;;;5.95;;
35877;SDS011;21982;49.804;24.072;2023-05-07T14:21:06;14.25;;;6.70;;
35877;SDS011;21982;49.804;24.072;2023-05-07T14:23:32;12.35;;;7.78;;
35877;SDS011;21982;49.804;24.072;2023-05-07T14:25:58;15.20;;;9.25;;
35877;SDS011;21982;49.804;24.072;2023-05-07T14:28:23;17.35;;;8.00;;
35877;SDS011;21982;49.804;24.072;2023-05-07T14:30:50;14.15;;;7.28;;
35877;SDS011;21982;49.804;24.072;2023-05-07T14:33:15;10.35;;;5.53;;
35877;SDS011;21982;49.804;24.072;2023-05-07T14:35:42;11.30;;;6.28;;
35877;SDS011;21982;49.804;24.072;2023-05-07T14:38:12;11.77;;;5.93;;
35877;SDS011;21982;49.804;24.072;2023-05-07T14:40:38;11.20;;;6.40;;
35877;SDS011;21982;49.804;24.072;2023-05-07T14:43:03;13.80;;;6.80;;
35877;SDS011;21982;49.804;24.072;2023-05-07T14:45:28;13.00;;;6.65;;
35877;SDS011;21982;49.804;24.072;2023-05-07T14:47:54;11.93;;;7.03;;
35877;SDS011;21982;49.804;24.072;2023-05-07T14:50:20;14.32;;;8.27;;
35877;SDS011;21982;49.804;24.072;2023-05-07T14:52:45;12.05;;;6.00;;